Time;durP1;ratioP1;P1;durP2;ratioP2;P2;SDS_P1;SDS_P2;PMS_P1;PMS_P2;Temp;Humidity;BMP_temperature;BMP_pressure;BME280_temperature;BME280_humidity;BME280_pressure;Samples;Min_cycle;Max_cycle;Signal;HPM_P1;HPM_P2
2023/08/07 00:00:29;;;;;;;18.30;3.42;;;13.90;89.60;;;;;;5032607;28;20383;-75
2023/08/07 00:02:55;;;;;;;10.80;3.27;;;13.80;92.00;;;;;;5032049;28;20379;-75
2023/08/07 00:05:21;;;;;;;7.90;3.50;;;13.80;89.70;;;;;;5032336;28;20478;-75
2023/08/07 00:07:47;;;;;;;8.10;3.20;;;13.90;87.50;;;;;;5032837;28;20406;-75
2023/08/07 00:10:13;;;;;;;8.80;3.17;;;13.90;87.00;;;;;;5031915;28;20914;-74
2023/08/07 00:12:38;;;;;;;12.23;3.00;;;13.90;87.00;;;;;;5034673;28;20391;-75
2023/08/07 00:15:05;;;;;;;10.93;2.97;;;13.90;85.40;;;;;;5031944;28;20418;-75
2023/08/07 00:17:31;;;;;;;11.88;3.15;;;13.90;84.90;;;;;;5031703;28;20796;-75
2023/08/07 00:19:56;;;;;;;7.75;2.78;;;13.90;84.90;;;;;;5031667;28;20414;-75
2023/08/07 00:22:22;;;;;;;9.93;3.00;;;14.00;82.50;;;;;;5031477;28;20850;-75
2023/08/07 00:24:47;;;;;;;10.02;2.80;;;14.00;83.90;;;;;;5031342;28;20506;-76
2023/08/07 00:27:14;;;;;;;9.50;2.90;;;14.00;84.20;;;;;;5032034;28;20383;-76
2023/08/07 00:29:40;;;;;;;11.75;2.90;;;14.00;82.50;;;;;;5031794;28;20867;-75
2023/08/07 00:32:06;;;;;;;8.45;3.00;;;14.00;82.40;;;;;;5031392;28;20402;-75
2023/08/07 00:34:31;;;;;;;12.40;2.90;;;14.00;81.60;;;;;;5031234;28;20851;-76
2023/08/07 00:36:57;;;;;;;12.63;3.40;;;14.00;80.90;;;;;;5032190;28;20375;-76
2023/08/07 00:39:23;;;;;;;10.30;2.83;;;14.00;82.70;;;;;;5032348;28;20387;-75
2023/08/07 00:41:48;;;;;;;13.90;3.30;;;14.00;79.80;;;;;;5031815;28;20397;-75
2023/08/07 00:44:14;;;;;;;9.27;2.57;;;14.00;78.20;;;;;;5031695;28;20421;-76
2023/08/07 00:46:40;;;;;;;9.80;2.43;;;14.00;78.30;;;;;;5031365;28;20390;-74
2023/08/07 00:49:08;;;;;;;11.13;2.43;;;14.00;80.20;;;;;;5031999;28;20382;-75
2023/08/07 00:51:35;;;;;;;11.20;2.95;;;14.00;78.70;;;;;;5031449;28;20902;-75
2023/08/07 00:54:03;;;;;;;9.30;2.97;;;14.10;77.80;;;;;;5033048;28;20391;-75
2023/08/07 00:56:30;;;;;;;8.20;2.50;;;14.10;77.60;;;;;;5031880;28;20413;-74
2023/08/07 00:58:56;;;;;;;10.48;2.75;;;14.10;77.40;;;;;;5032666;28;20379;-74
2023/08/07 01:01:22;;;;;;;10.50;3.22;;;14.10;79.10;;;;;;5032598;28;20387;-75
2023/08/07 01:03:48;;;;;;;12.95;3.00;;;14.10;79.30;;;;;;5032950;28;20529;-75
2023/08/07 01:06:14;;;;;;;7.28;3.00;;;14.00;79.10;;;;;;5033860;28;20474;-75
2023/08/07 01:08:40;;;;;;;11.38;2.50;;;14.10;79.00;;;;;;5032983;28;20895;-74
2023/08/07 01:11:30;;;;;;;10.15;2.67;;;14.00;78.90;;;;;;5031908;28;20394;-75
2023/08/07 01:14:13;;;;;;;13.40;3.10;;;14.00;79.70;;;;;;5032763;28;20387;-75
2023/08/07 01:16:59;;;;;;;14.05;3.80;;;14.00;79.40;;;;;;5032970;28;20493;-74
2023/08/07 01:19:27;;;;;;;13.43;3.15;;;14.10;78.20;;;;;;5019190;28;20422;-72
2023/08/07 01:22:12;;;;;;;12.30;3.30;;;14.10;77.80;;;;;;5027310;28;20405;-74
2023/08/07 01:24:40;;;;;;;18.05;3.35;;;14.00;78.40;;;;;;5013939;28;20391;-75
2023/08/07 01:27:36;;;;;;;11.68;3.50;;;14.10;76.70;;;;;;5031122;28;20383;-73
2023/08/07 01:30:26;;;;;;;9.38;3.30;;;14.10;76.70;;;;;;5031468;28;20480;-74
2023/08/07 01:33:10;;;;;;;11.27;3.20;;;14.10;76.90;;;;;;5030687;28;20391;-74
2023/08/07 01:35:44;;;;;;;18.33;3.42;;;14.10;77.00;;;;;;5030844;28;20399;-75
2023/08/07 01:38:12;;;;;;;13.57;3.30;;;14.10;75.30;;;;;;5031285;28;20394;-75
2023/08/07 01:40:39;;;;;;;21.63;3.40;;;14.20;74.50;;;;;;5013105;28;20494;-73
2023/08/07 01:43:05;;;;;;;11.50;3.30;;;14.10;74.00;;;;;;5031004;28;20412;-75
2023/08/07 01:45:30;;;;;;;10.90;2.85;;;14.10;74.00;;;;;;5030812;28;20468;-74
2023/08/07 01:47:56;;;;;;;9.18;3.33;;;14.10;75.90;;;;;;5030450;28;20391;-74
2023/08/07 01:50:23;;;;;;;14.77;3.40;;;14.10;79.90;;;;;;5030493;28;20474;-74
2023/08/07 01:52:49;;;;;;;14.52;3.58;;;14.00;82.90;;;;;;5030658;28;20391;-73
2023/08/07 01:55:16;;;;;;;8.45;3.25;;;13.80;86.20;;;;;;5030617;28;20481;-74
2023/08/07 01:57:42;;;;;;;13.30;3.97;;;13.80;86.90;;;;;;5031496;28;20824;-74
2023/08/07 02:00:08;;;;;;;20.50;4.22;;;13.70;89.50;;;;;;5034789;28;20378;-73
2023/08/07 02:02:34;;;;;;;11.15;3.70;;;13.60;93.00;;;;;;5034654;28;20387;-75
2023/08/07 02:05:00;;;;;;;18.60;4.10;;;13.60;95.00;;;;;;5034391;28;20488;-74
2023/08/07 02:07:26;;;;;;;12.45;3.80;;;13.60;96.20;;;;;;5034352;28;20427;-74
2023/08/07 02:09:51;;;;;;;15.13;4.82;;;13.60;99.60;;;;;;5034368;28;20390;-74
2023/08/07 02:12:17;;;;;;;11.30;3.80;;;13.50;99.90;;;;;;5033824;28;20795;-74
2023/08/07 02:14:42;;;;;;;14.83;4.10;;;13.40;99.90;;;;;;5033874;28;20389;-74
2023/08/07 02:17:08;;;;;;;17.07;4.10;;;13.40;99.90;;;;;;5034214;28;20399;-74
2023/08/07 02:19:34;;;;;;;15.30;3.43;;;13.30;99.90;;;;;;5034154;28;20385;-74
2023/08/07 02:21:59;;;;;;;12.40;4.20;;;13.30;99.90;;;;;;5033912;28;20391;-74
2023/08/07 02:24:25;;;;;;;11.37;3.87;;;13.40;99.90;;;;;;5033671;28;20493;-74
2023/08/07 02:26:50;;;;;;;16.58;4.15;;;13.30;99.90;;;;;;5033917;28;20428;-74
2023/08/07 02:29:16;;;;;;;12.95;3.80;;;13.30;99.90;;;;;;5034375;28;20391;-74
2023/08/07 02:31:41;;;;;;;18.80;4.32;;;13.30;99.90;;;;;;5033911;28;20394;-74
2023/08/07 02:34:07;;;;;;;10.90;3.80;;;13.30;99.90;;;;;;5033832;28;20751;-74
2023/08/07 02:36:32;;;;;;;10.00;4.00;;;13.30;99.90;;;;;;5033791;28;20887;-73
2023/08/07 02:38:58;;;;;;;12.67;3.70;;;13.30;99.90;;;;;;5034001;28;20926;-73
2023/08/07 02:41:24;;;;;;;12.70;4.00;;;13.30;99.90;;;;;;5034485;28;20428;-74
2023/08/07 02:43:49;;;;;;;13.93;3.92;;;13.30;99.90;;;;;;5034020;28;20386;-74
2023/08/07 02:46:15;;;;;;;15.40;4.18;;;13.30;99.90;;;;;;5033540;28;20383;-75
2023/08/07 02:48:40;;;;;;;15.00;4.00;;;13.30;99.90;;;;;;5033654;28;20492;-75
2023/08/07 02:51:06;;;;;;;14.47;4.00;;;13.30;99.90;;;;;;5033383;28;20394;-74
2023/08/07 02:53:32;;;;;;;12.50;4.40;;;13.30;99.90;;;;;;5033470;28;20921;-75
2023/08/07 02:55:57;;;;;;;16.90;3.70;;;13.30;99.90;;;;;;5033211;28;20913;-73
2023/08/07 02:58:23;;;;;;;15.43;3.73;;;13.30;99.90;;;;;;5033330;28;20391;-74
2023/08/07 03:00:48;;;;;;;15.00;4.77;;;13.40;98.90;;;;;;5033417;28;20582;-73
2023/08/07 03:03:14;;;;;;;10.85;3.72;;;13.40;97.30;;;;;;5015272;28;20372;-74
2023/08/07 03:05:48;;;;;;;16.55;4.25;;;13.40;96.20;;;;;;5033467;28;20383;-75
2023/08/07 03:08:14;;;;;;;10.30;3.90;;;13.40;96.20;;;;;;5033844;28;20394;-75
2023/08/07 03:10:39;;;;;;;18.27;4.13;;;13.40;92.30;;;;;;5032322;28;20379;-74
2023/08/07 03:13:05;;;;;;;17.70;3.70;;;13.50;93.30;;;;;;5032782;28;20776;-74
2023/08/07 03:15:30;;;;;;;15.83;4.20;;;13.50;92.10;;;;;;5032801;28;20888;-75
2023/08/07 03:17:56;;;;;;;11.20;3.93;;;13.50;91.80;;;;;;5033061;28;20471;-75
2023/08/07 03:20:22;;;;;;;19.17;4.70;;;13.50;92.10;;;;;;5032852;28;20855;-74
2023/08/07 03:22:47;;;;;;;11.00;3.53;;;13.60;90.50;;;;;;5033004;28;20898;-75
2023/08/07 03:25:13;;;;;;;15.55;4.40;;;13.60;89.60;;;;;;5032635;28;20870;-75
2023/08/07 03:27:38;;;;;;;17.40;4.20;;;13.60;89.70;;;;;;5032839;28;20721;-73
2023/08/07 03:30:04;;;;;;;10.77;4.10;;;13.50;90.90;;;;;;5032719;28;20752;-74
2023/08/07 03:32:30;;;;;;;24.13;4.68;;;13.60;88.20;;;;;;5032651;28;20391;-74
2023/08/07 03:34:55;;;;;;;17.90;4.70;;;13.60;90.40;;;;;;5032820;28;20406;-74
2023/08/07 03:37:21;;;;;;;13.00;4.00;;;13.60;89.60;;;;;;5032922;28;20380;-74
2023/08/07 03:39:48;;;;;;;16.27;4.57;;;13.50;89.70;;;;;;5026419;28;20406;-76
2023/08/07 03:42:15;;;;;;;19.70;4.70;;;13.60;87.40;;;;;;5031972;28;20414;-74
2023/08/07 03:44:40;;;;;;;17.50;4.15;;;13.60;87.00;;;;;;5047161;28;20383;-73
2023/08/07 03:47:06;;;;;;;15.60;4.00;;;13.60;86.10;;;;;;5035677;28;20389;-74
2023/08/07 03:49:32;;;;;;;12.67;3.97;;;13.60;84.50;;;;;;5032588;28;20390;-74
2023/08/07 03:51:59;;;;;;;15.57;4.77;;;13.70;84.50;;;;;;5032365;28;20379;-74
2023/08/07 03:54:24;;;;;;;15.75;4.45;;;13.70;85.60;;;;;;5032352;28;20393;-74
2023/08/07 03:56:51;;;;;;;16.97;4.30;;;13.60;84.80;;;;;;5032834;28;20422;-75
2023/08/07 03:59:17;;;;;;;11.80;3.95;;;13.60;84.90;;;;;;5032541;28;20383;-74
2023/08/07 04:01:42;;;;;;;13.30;4.28;;;13.60;86.30;;;;;;5033081;28;20383;-74
2023/08/07 04:04:08;;;;;;;13.97;4.10;;;13.70;83.90;;;;;;5032576;28;20498;-74
2023/08/07 04:06:33;;;;;;;13.33;4.20;;;13.70;84.20;;;;;;5015526;28;20423;-75
2023/08/07 04:08:59;;;;;;;15.20;4.32;;;13.60;85.40;;;;;;5032608;28;20474;-75
2023/08/07 04:11:25;;;;;;;11.00;3.70;;;13.60;84.90;;;;;;5032620;28;20388;-75
2023/08/07 04:13:50;;;;;;;13.50;3.70;;;13.60;83.90;;;;;;5032800;28;20406;-74
2023/08/07 04:16:16;;;;;;;10.50;4.13;;;13.60;84.00;;;;;;5032167;28;20753;-76
2023/08/07 04:18:42;;;;;;;17.50;4.10;;;13.70;84.10;;;;;;5031976;28;20411;-74
2023/08/07 04:21:08;;;;;;;18.00;4.20;;;13.60;84.30;;;;;;5031471;28;20461;-74
2023/08/07 04:23:33;;;;;;;11.82;4.15;;;13.60;84.50;;;;;;5032156;28;20756;-74
2023/08/07 04:25:59;;;;;;;22.80;4.88;;;13.60;84.10;;;;;;5032112;28;20390;-74
2023/08/07 04:28:27;;;;;;;11.30;4.10;;;13.60;82.50;;;;;;5032356;28;20455;-74
2023/08/07 04:30:53;;;;;;;18.35;4.95;;;13.70;81.20;;;;;;5032649;28;20395;-74
2023/08/07 04:33:20;;;;;;;10.77;3.60;;;13.70;82.30;;;;;;5032190;28;20466;-74
2023/08/07 04:35:46;;;;;;;14.05;4.45;;;13.70;80.60;;;;;;5032834;28;20438;-74
2023/08/07 04:38:13;;;;;;;12.88;4.30;;;13.70;80.40;;;;;;5033017;28;20682;-74
2023/08/07 04:40:43;;;;;;;9.63;4.10;;;13.70;79.30;;;;;;5033448;28;20383;-74
2023/08/07 04:43:09;;;;;;;13.32;4.30;;;13.70;80.70;;;;;;5036073;28;20378;-74
2023/08/07 04:45:35;;;;;;;14.23;4.20;;;13.70;80.00;;;;;;5037831;28;20393;-74
2023/08/07 04:48:00;;;;;;;11.48;4.20;;;13.70;79.30;;;;;;5036901;28;20399;-74
2023/08/07 04:50:26;;;;;;;15.87;5.10;;;13.70;79.80;;;;;;5033270;28;20395;-74
2023/08/07 04:52:52;;;;;;;17.67;4.40;;;13.70;79.30;;;;;;5034164;28;20444;-74
2023/08/07 04:55:17;;;;;;;19.23;4.50;;;13.70;79.40;;;;;;5034464;28;20418;-74
2023/08/07 04:57:43;;;;;;;14.93;4.68;;;13.70;80.00;;;;;;5033773;28;20466;-74
2023/08/07 05:00:09;;;;;;;13.18;4.28;;;13.80;79.10;;;;;;5035140;28;20383;-74
2023/08/07 05:02:35;;;;;;;19.40;4.67;;;13.80;79.80;;;;;;5036025;28;20391;-74
2023/08/07 05:05:00;;;;;;;18.97;4.40;;;13.80;80.00;;;;;;5039396;28;20394;-74
2023/08/07 05:07:26;;;;;;;14.70;4.60;;;13.80;79.70;;;;;;5040235;28;20398;-73
2023/08/07 05:09:51;;;;;;;11.07;4.20;;;13.80;78.70;;;;;;5040384;28;20379;-74
2023/08/07 05:12:17;;;;;;;19.50;4.57;;;13.80;80.50;;;;;;5027426;28;20387;-74
2023/08/07 05:14:42;;;;;;;16.95;4.60;;;13.80;79.80;;;;;;5043754;28;20820;-74
2023/08/07 05:17:08;;;;;;;15.07;4.97;;;13.80;80.30;;;;;;5046632;28;20454;-75
2023/08/07 05:19:34;;;;;;;15.07;4.83;;;13.80;79.80;;;;;;5048369;28;20875;-73
2023/08/07 05:21:59;;;;;;;16.00;4.93;;;13.80;80.40;;;;;;5044883;28;20438;-75
2023/08/07 05:24:25;;;;;;;18.00;4.50;;;13.80;79.60;;;;;;5037489;28;20395;-74
2023/08/07 05:26:50;;;;;;;21.23;5.07;;;13.80;79.80;;;;;;5034508;28;20410;-74
2023/08/07 05:29:16;;;;;;;17.33;5.53;;;13.70;83.90;;;;;;5035317;28;20449;-74
2023/08/07 05:31:41;;;;;;;14.85;4.78;;;13.70;85.00;;;;;;5019645;28;20387;-75
2023/08/07 05:34:07;;;;;;;20.80;5.23;;;13.70;84.70;;;;;;5040655;28;20478;-74
2023/08/07 05:36:33;;;;;;;19.23;4.90;;;13.60;83.20;;;;;;5038473;28;20890;-74
2023/08/07 05:38:58;;;;;;;17.90;5.20;;;13.70;82.20;;;;;;5038735;28;20402;-74
2023/08/07 05:41:24;;;;;;;14.10;5.10;;;13.70;83.70;;;;;;5038172;28;20446;-74
2023/08/07 05:43:49;;;;;;;14.90;5.37;;;13.70;83.60;;;;;;5037785;28;20490;-75
2023/08/07 05:46:15;;;;;;;12.52;4.25;;;13.70;84.60;;;;;;5037151;28;20387;-76
2023/08/07 05:48:40;;;;;;;17.98;5.50;;;13.70;82.40;;;;;;5037285;28;20398;-75
2023/08/07 05:51:07;;;;;;;15.18;4.90;;;13.70;84.20;;;;;;5037032;28;20461;-75
2023/08/07 05:53:34;;;;;;;19.63;5.75;;;13.70;86.20;;;;;;5037181;28;20386;-75
2023/08/07 05:56:00;;;;;;;13.52;4.80;;;13.70;89.50;;;;;;5035702;28;20402;-76
2023/08/07 05:58:25;;;;;;;16.65;5.28;;;13.60;89.20;;;;;;5050969;28;20418;-75
2023/08/07 06:00:51;;;;;;;11.65;4.88;;;13.70;89.20;;;;;;5035249;28;20387;-75
2023/08/07 06:03:17;;;;;;;15.15;5.55;;;13.70;91.60;;;;;;5037164;28;20406;-75
2023/08/07 06:05:42;;;;;;;15.87;5.50;;;13.70;92.60;;;;;;5044216;28;20417;-74
2023/08/07 06:08:08;;;;;;;14.37;5.27;;;13.70;93.40;;;;;;5044002;28;20399;-73
2023/08/07 06:10:34;;;;;;;18.58;5.20;;;13.70;93.90;;;;;;5035164;28;20899;-74
2023/08/07 06:12:59;;;;;;;12.83;4.83;;;13.70;91.20;;;;;;5035024;28;20476;-76
2023/08/07 06:15:25;;;;;;;16.87;5.10;;;13.70;91.50;;;;;;5018018;28;20406;-77
2023/08/07 06:17:51;;;;;;;15.50;5.73;;;13.70;93.00;;;;;;5034527;28;20398;-73
2023/08/07 06:20:17;;;;;;;21.15;6.28;;;13.70;92.30;;;;;;5035571;28;20454;-75
2023/08/07 06:22:43;;;;;;;18.98;5.53;;;13.70;93.30;;;;;;5032579;28;20893;-75
2023/08/07 06:25:09;;;;;;;13.70;5.30;;;13.70;93.30;;;;;;5033449;28;20411;-74
2023/08/07 06:27:34;;;;;;;15.32;5.20;;;13.70;92.80;;;;;;5018109;28;20442;-75
2023/08/07 06:30:00;;;;;;;16.38;5.50;;;13.80;93.80;;;;;;5031990;28;20569;-74
2023/08/07 06:32:26;;;;;;;13.82;4.80;;;13.80;90.80;;;;;;5032683;28;20394;-75
2023/08/07 06:34:52;;;;;;;14.00;4.78;;;13.80;89.70;;;;;;5033357;28;20505;-75
2023/08/07 06:37:18;;;;;;;12.33;4.87;;;13.80;90.30;;;;;;5037718;28;20387;-73
2023/08/07 06:39:44;;;;;;;13.93;4.90;;;13.90;90.90;;;;;;5043087;28;20418;-73
2023/08/07 06:42:09;;;;;;;17.45;5.50;;;13.90;88.70;;;;;;5043425;28;20403;-73
2023/08/07 06:44:35;;;;;;;12.57;4.80;;;14.00;88.30;;;;;;5044509;28;20399;-74
2023/08/07 06:47:01;;;;;;;9.10;4.00;;;13.90;89.20;;;;;;5045930;28;20383;-73
2023/08/07 06:49:26;;;;;;;11.80;4.80;;;13.80;89.80;;;;;;5042098;28;20444;-74
2023/08/07 06:51:52;;;;;;;15.13;4.60;;;13.80;94.80;;;;;;5040149;28;20458;-75
2023/08/07 06:54:17;;;;;;;12.70;5.20;;;13.80;95.20;;;;;;5039322;28;20813;-75
2023/08/07 06:56:44;;;;;;;17.40;5.10;;;13.80;97.20;;;;;;5040361;28;20411;-74
2023/08/07 06:59:10;;;;;;;13.30;5.55;;;13.80;97.00;;;;;;5039146;28;20399;-75
2023/08/07 07:01:36;;;;;;;18.63;5.82;;;13.70;96.90;;;;;;5037613;28;20871;-75
2023/08/07 07:04:01;;;;;;;20.98;6.03;;;13.70;99.90;;;;;;5037411;28;20457;-75
2023/08/07 07:06:27;;;;;;;11.05;4.78;;;13.70;99.90;;;;;;5022051;28;20399;-74
2023/08/07 07:08:54;;;;;;;14.15;5.28;;;13.80;98.10;;;;;;5022711;28;20395;-75
2023/08/07 07:11:20;;;;;;;9.60;4.68;;;13.80;95.90;;;;;;5036293;28;20403;-74
2023/08/07 07:13:46;;;;;;;12.87;5.20;;;13.80;97.70;;;;;;5020579;28;20878;-75
2023/08/07 07:16:13;;;;;;;10.57;4.57;;;13.90;97.40;;;;;;5035989;28;20435;-74
2023/08/07 07:18:38;;;;;;;16.90;5.20;;;13.80;96.30;;;;;;5034143;28;20399;-75
2023/08/07 07:21:04;;;;;;;11.10;4.20;;;13.80;97.50;;;;;;5013960;28;20403;-74
2023/08/07 07:23:30;;;;;;;14.27;4.70;;;13.80;97.30;;;;;;5033369;28;20397;-75
2023/08/07 07:25:56;;;;;;;11.33;4.70;;;13.80;96.80;;;;;;5032350;28;20411;-74
2023/08/07 07:28:22;;;;;;;11.40;5.05;;;13.80;98.50;;;;;;5031755;28;20488;-74
2023/08/07 07:30:49;;;;;;;15.47;5.20;;;13.70;97.20;;;;;;5032098;28;20419;-74
2023/08/07 07:33:15;;;;;;;15.20;4.47;;;13.70;99.50;;;;;;5031389;28;20427;-75
2023/08/07 07:35:40;;;;;;;17.40;5.50;;;13.70;98.50;;;;;;5030186;28;20488;-75
2023/08/07 07:38:07;;;;;;;12.13;4.83;;;13.70;97.70;;;;;;5031199;28;20474;-74
2023/08/07 07:40:34;;;;;;;18.00;6.00;;;13.70;98.50;;;;;;5030121;28;20387;-74
2023/08/07 07:43:00;;;;;;;12.47;5.03;;;13.80;99.70;;;;;;5012974;28;20845;-74
2023/08/07 07:45:25;;;;;;;15.87;4.80;;;13.70;99.90;;;;;;5030294;28;20403;-73
2023/08/07 07:47:51;;;;;;;18.40;5.17;;;13.70;99.90;;;;;;5030348;28;20505;-73
2023/08/07 07:50:16;;;;;;;14.23;4.90;;;13.80;97.60;;;;;;5030062;28;20531;-73
2023/08/07 07:52:43;;;;;;;17.15;5.32;;;13.80;95.90;;;;;;5030162;28;20395;-74
2023/08/07 07:55:09;;;;;;;13.88;5.10;;;13.80;96.30;;;;;;5030949;28;20494;-74
2023/08/07 07:57:35;;;;;;;14.90;5.13;;;13.90;93.80;;;;;;5030765;28;20383;-74
2023/08/07 08:00:01;;;;;;;14.17;5.90;;;13.90;92.60;;;;;;5014557;28;20398;-74
2023/08/07 08:02:26;;;;;;;14.67;5.13;;;13.90;94.00;;;;;;5012184;28;20383;-73
2023/08/07 08:04:52;;;;;;;15.70;5.80;;;13.90;93.00;;;;;;5030914;28;20449;-73
2023/08/07 08:07:18;;;;;;;19.00;6.57;;;13.90;93.00;;;;;;5030392;28;20462;-73
2023/08/07 08:09:44;;;;;;;21.13;6.77;;;13.90;99.40;;;;;;5030204;28;20434;-73
2023/08/07 08:12:10;;;;;;;21.88;6.43;;;14.00;96.80;;;;;;5011759;28;20969;-75
2023/08/07 08:14:36;;;;;;;19.13;5.30;;;14.10;94.70;;;;;;5030283;28;20395;-73
2023/08/07 08:17:02;;;;;;;20.00;5.10;;;14.20;87.10;;;;;;5030350;28;20888;-74
2023/08/07 08:19:27;;;;;;;13.97;4.70;;;14.40;87.90;;;;;;5012680;28;20438;-73
2023/08/07 08:21:53;;;;;;;15.60;4.30;;;14.60;82.20;;;;;;5030962;28;20550;-75
2023/08/07 08:24:19;;;;;;;11.27;4.68;;;14.60;81.30;;;;;;5030834;28;20402;-75
2023/08/07 08:26:45;;;;;;;12.17;4.40;;;14.60;82.20;;;;;;5014907;28;20390;-74
2023/08/07 08:29:14;;;;;;;9.88;4.50;;;14.70;78.10;;;;;;5020624;28;20394;-74
2023/08/07 08:31:40;;;;;;;9.82;3.70;;;14.60;81.00;;;;;;5039524;28;20387;-74
2023/08/07 08:34:05;;;;;;;9.95;3.70;;;14.60;78.50;;;;;;5012122;28;20753;-73
2023/08/07 08:36:31;;;;;;;10.03;3.10;;;14.60;78.50;;;;;;5029481;28;20461;-75
2023/08/07 08:38:56;;;;;;;8.23;3.83;;;14.70;78.70;;;;;;5027576;28;20679;-75
2023/08/07 08:41:22;;;;;;;9.93;3.30;;;14.80;74.50;;;;;;5029164;28;20418;-73
2023/08/07 08:43:51;;;;;;;11.45;4.20;;;14.80;73.80;;;;;;5029767;28;20469;-73
2023/08/07 08:46:20;;;;;;;10.00;3.92;;;15.10;72.30;;;;;;5029652;28;20931;-74
2023/08/07 08:48:56;;;;;;;9.48;3.78;;;15.30;69.30;;;;;;5029295;28;20601;-73
2023/08/07 08:51:22;;;;;;;8.02;3.28;;;15.50;65.30;;;;;;5029091;28;20935;-75
2023/08/07 08:53:49;;;;;;;9.73;2.63;;;15.70;61.30;;;;;;5011550;28;20506;-74
2023/08/07 08:56:15;;;;;;;7.88;2.92;;;16.00;57.60;;;;;;5028563;28;20499;-75
2023/08/07 08:58:41;;;;;;;7.57;2.60;;;16.20;56.00;;;;;;5030348;28;20409;-73
2023/08/07 09:01:08;;;;;;;9.57;3.00;;;16.40;55.60;;;;;;5029580;28;20490;-74
2023/08/07 09:03:34;;;;;;;7.53;2.83;;;16.60;52.70;;;;;;5013796;28;20491;-73
2023/08/07 09:06:00;;;;;;;9.63;2.60;;;16.90;52.90;;;;;;5032169;28;20399;-73
2023/08/07 09:08:29;;;;;;;9.60;2.70;;;17.30;49.60;;;;;;5031062;28;20807;-75
2023/08/07 09:10:55;;;;;;;3.75;2.30;;;17.40;47.90;;;;;;5031106;28;20384;-72
2023/08/07 09:13:23;;;;;;;6.45;2.90;;;17.50;47.30;;;;;;5031239;28;20382;-73
2023/08/07 09:15:50;;;;;;;9.07;2.70;;;17.40;50.70;;;;;;5031647;28;20534;-73
2023/08/07 09:18:19;;;;;;;8.55;2.90;;;17.40;47.40;;;;;;5032235;28;20733;-74
2023/08/07 09:20:44;;;;;;;10.52;3.20;;;17.50;48.60;;;;;;5033071;28;20780;-75
2023/08/07 09:23:10;;;;;;;10.23;3.50;;;17.70;47.10;;;;;;5033182;28;20394;-73
2023/08/07 09:25:36;;;;;;;10.20;3.60;;;17.60;47.10;;;;;;5036250;28;20405;-74
2023/08/07 09:28:04;;;;;;;11.53;3.40;;;17.20;48.80;;;;;;5036021;28;20407;-74
2023/08/07 09:30:31;;;;;;;12.90;3.50;;;16.80;52.60;;;;;;5031764;28;20402;-74
2023/08/07 09:33:00;;;;;;;11.80;3.97;;;16.40;52.50;;;;;;5031494;28;20860;-75
2023/08/07 09:35:27;;;;;;;9.40;3.53;;;16.00;56.70;;;;;;5031990;28;20849;-75
2023/08/07 09:37:53;;;;;;;14.52;3.97;;;16.10;54.60;;;;;;5031692;28;20472;-75
2023/08/07 09:40:19;;;;;;;13.10;3.95;;;16.00;57.40;;;;;;5031366;28;20419;-74
2023/08/07 09:42:49;;;;;;;9.23;3.10;;;16.20;55.00;;;;;;5031277;28;20389;-74
2023/08/07 09:45:24;;;;;;;8.35;3.13;;;16.60;51.20;;;;;;5013168;28;20428;-74
2023/08/07 09:48:03;;;;;;;10.43;3.50;;;16.90;49.70;;;;;;5031109;28;20407;-74
2023/08/07 09:50:29;;;;;;;9.63;3.30;;;17.20;48.40;;;;;;5031539;28;20484;-74
2023/08/07 09:52:56;;;;;;;11.35;3.33;;;17.40;46.60;;;;;;5030911;28;20387;-73
2023/08/07 09:55:22;;;;;;;15.05;2.95;;;17.20;44.10;;;;;;5014772;28;20503;-73
2023/08/07 09:57:48;;;;;;;11.85;3.72;;;16.30;54.60;;;;;;5031514;28;20537;-73
2023/08/07 10:00:15;;;;;;;12.05;3.28;;;16.20;59.80;;;;;;5031978;28;20387;-75
2023/08/07 10:02:45;;;;;;;12.48;3.83;;;15.90;59.40;;;;;;5031470;28;20391;-74
2023/08/07 10:05:11;;;;;;;12.57;3.90;;;15.80;56.60;;;;;;5013649;28;20383;-74
2023/08/07 10:07:38;;;;;;;14.57;4.00;;;16.00;56.40;;;;;;5013129;28;20859;-73
2023/08/07 10:10:06;;;;;;;13.40;3.75;;;16.20;55.70;;;;;;5024275;28;20487;-74
2023/08/07 10:12:32;;;;;;;10.55;3.63;;;16.30;53.20;;;;;;5011425;28;20968;-73
2023/08/07 10:15:01;;;;;;;8.18;3.70;;;16.20;53.70;;;;;;5024671;28;20403;-75
2023/08/07 10:17:27;;;;;;;10.18;3.97;;;16.30;54.50;;;;;;5030951;28;20395;-73
2023/08/07 10:19:53;;;;;;;14.88;4.32;;;16.60;53.80;;;;;;5031419;28;20414;-74
2023/08/07 10:22:20;;;;;;;9.57;3.90;;;16.90;52.20;;;;;;5016941;28;20417;-73
2023/08/07 10:24:50;;;;;;;14.40;3.50;;;17.20;48.20;;;;;;5034711;28;20383;-74
2023/08/07 10:27:18;;;;;;;12.38;3.50;;;17.80;42.80;;;;;;5034133;28;20413;-73
2023/08/07 10:29:48;;;;;;;11.23;3.95;;;18.10;38.90;;;;;;5033966;28;20409;-74
2023/08/07 10:32:17;;;;;;;9.63;3.58;;;18.40;39.50;;;;;;5034797;28;20391;-73
2023/08/07 10:34:47;;;;;;;13.70;3.30;;;18.70;38.20;;;;;;5033962;28;20517;-74
2023/08/07 10:37:31;;;;;;;12.35;3.10;;;19.20;37.10;;;;;;5033964;28;20828;-73
2023/08/07 10:40:04;;;;;;;10.48;2.83;;;19.30;31.90;;;;;;5034039;28;20383;-75
2023/08/07 10:43:11;;;;;;;11.70;2.97;;;19.30;31.70;;;;;;5034127;28;20387;-74
2023/08/07 10:45:38;;;;;;;10.32;2.97;;;19.30;30.00;;;;;;5034694;28;20445;-73
2023/08/07 10:48:10;;;;;;;11.00;3.08;;;19.30;29.50;;;;;;5037399;28;20391;-74
2023/08/07 10:50:51;;;;;;;5.88;2.80;;;19.40;30.00;;;;;;5045724;28;20431;-73
2023/08/07 10:53:43;;;;;;;12.35;3.40;;;19.50;28.80;;;;;;5048676;28;20760;-76
2023/08/07 10:56:11;;;;;;;13.38;3.40;;;19.70;29.60;;;;;;5031409;28;20453;-76
2023/08/07 10:58:38;;;;;;;8.63;2.63;;;19.70;29.10;;;;;;5038528;28;20899;-74
2023/08/07 11:01:27;;;;;;;12.20;2.80;;;19.60;28.40;;;;;;5037060;28;20461;-73
2023/08/07 11:03:54;;;;;;;10.25;2.92;;;19.20;29.10;;;;;;5033968;28;20406;-74
2023/08/07 11:06:31;;;;;;;11.77;2.40;;;19.30;25.60;;;;;;5033466;28;20421;-75
2023/08/07 11:08:57;;;;;;;10.05;2.22;;;19.60;22.30;;;;;;5033318;28;20434;-74
2023/08/07 11:11:23;;;;;;;9.18;2.60;;;19.60;22.10;;;;;;5034458;28;20394;-75
2023/08/07 11:13:49;;;;;;;8.55;2.50;;;19.70;21.50;;;;;;5034172;28;20457;-74
2023/08/07 11:16:14;;;;;;;11.70;3.10;;;19.60;21.80;;;;;;5034984;28;20764;-74
2023/08/07 11:18:41;;;;;;;10.15;2.50;;;19.40;22.30;;;;;;5035318;28;20399;-75
2023/08/07 11:21:08;;;;;;;7.20;2.80;;;19.20;24.20;;;;;;5033997;28;20387;-75
2023/08/07 11:23:35;;;;;;;6.32;2.50;;;19.30;24.70;;;;;;5015780;28;20383;-75
2023/08/07 11:26:02;;;;;;;7.47;2.80;;;19.20;23.10;;;;;;5033941;28;20394;-75
2023/08/07 11:28:28;;;;;;;6.28;2.80;;;19.50;22.60;;;;;;5033401;28;20503;-74
2023/08/07 11:30:55;;;;;;;11.30;2.20;;;19.50;20.80;;;;;;5031711;28;20792;-75
2023/08/07 11:33:25;;;;;;;8.53;2.60;;;19.60;20.90;;;;;;5034321;28;20398;-75
2023/08/07 11:35:51;;;;;;;6.05;2.25;;;20.10;19.70;;;;;;5033611;28;20422;-77
2023/08/07 11:38:49;;;;;;;9.77;2.30;;;20.60;17.20;;;;;;5033646;28;20459;-76
2023/08/07 11:41:16;;;;;;;8.25;2.58;;;20.70;16.60;;;;;;4980193;28;20406;-74
2023/08/07 11:43:42;;;;;;;7.68;2.70;;;20.40;16.50;;;;;;5016615;28;20449;-75
2023/08/07 11:46:11;;;;;;;8.10;3.00;;;20.30;17.30;;;;;;5036251;28;20410;-75
2023/08/07 11:48:39;;;;;;;3.83;1.73;;;20.30;18.60;;;;;;5035028;28;20915;-75
2023/08/07 11:51:05;;;;;;;12.77;2.85;;;19.80;17.40;;;;;;5034017;28;20487;-75
2023/08/07 11:53:33;;;;;;;8.50;2.00;;;19.80;18.60;;;;;;5032662;28;20402;-75
2023/08/07 11:56:00;;;;;;;9.10;3.50;;;19.70;19.00;;;;;;5033653;28;20439;-74
2023/08/07 11:58:39;;;;;;;12.25;3.50;;;19.80;19.20;;;;;;5014790;28;20383;-75
2023/08/07 12:01:08;;;;;;;11.43;3.07;;;19.80;18.50;;;;;;5032974;28;20382;-75
2023/08/07 12:03:39;;;;;;;8.15;2.88;;;20.10;17.90;;;;;;5031969;28;20391;-74
2023/08/07 12:06:06;;;;;;;10.45;3.33;;;20.20;17.40;;;;;;5033629;28;20478;-75
2023/08/07 12:08:39;;;;;;;8.75;2.90;;;20.20;17.30;;;;;;5035608;28;20536;-75
2023/08/07 12:11:07;;;;;;;8.73;2.58;;;20.10;17.90;;;;;;5037681;28;20403;-74
2023/08/07 12:13:36;;;;;;;11.52;2.47;;;20.10;18.70;;;;;;5038055;28;20400;-74
2023/08/07 12:16:05;;;;;;;9.40;1.80;;;20.30;19.00;;;;;;5036323;28;20418;-73
2023/08/07 12:18:31;;;;;;;6.30;1.90;;;20.10;17.90;;;;;;5030804;28;20892;-76
2023/08/07 12:21:03;;;;;;;9.55;2.70;;;19.50;18.30;;;;;;5031448;28;20383;-77
2023/08/07 12:23:29;;;;;;;7.13;1.90;;;19.50;19.30;;;;;;5034299;28;21589;-75
2023/08/07 12:25:55;;;;;;;5.47;1.80;;;19.50;19.10;;;;;;5002256;28;20414;-74
2023/08/07 12:28:21;;;;;;;6.00;2.00;;;19.70;18.70;;;;;;5032091;28;20390;-74
2023/08/07 12:30:47;;;;;;;4.33;2.00;;;19.50;18.50;;;;;;5032106;28;20457;-75
2023/08/07 12:33:13;;;;;;;7.75;2.15;;;20.00;18.70;;;;;;5031615;28;20395;-74
2023/08/07 12:35:40;;;;;;;10.75;2.83;;;20.70;18.50;;;;;;5031704;28;20407;-74
2023/08/07 12:38:06;;;;;;;8.18;2.20;;;21.10;16.10;;;;;;5031107;28;20510;-74